sensor_id;sensor_type;location;lat;lon;timestamp;P1;durP1;ratioP1;P2;durP2;ratioP2
11287;SDS011;5700;50.996;7.044;2023-09-08T00:01:00;10.23;;;4.32;;
11287;SDS011;5700;50.996;7.044;2023-09-08T00:04:02;7.38;;;4.35;;
11287;SDS011;5700;50.996;7.044;2023-09-08T00:07:04;6.15;;;4.00;;
11287;SDS011;5700;50.996;7.044;2023-09-08T00:10:07;8.38;;;4.75;;
11287;SDS011;5700;50.996;7.044;2023-09-08T00:13:08;6.38;;;4.05;;
11287;SDS011;5700;50.996;7.044;2023-09-08T00:16:10;6.90;;;4.13;;
11287;SDS011;5700;50.996;7.044;2023-09-08T00:19:12;9.95;;;4.47;;
11287;SDS011;5700;50.996;7.044;2023-09-08T00:22:14;8.98;;;4.97;;
11287;SDS011;5700;50.996;7.044;2023-09-08T00:25:17;7.93;;;4.60;;
11287;SDS011;5700;50.996;7.044;2023-09-08T00:28:18;7.20;;;4.20;;
11287;SDS011;5700;50.996;7.044;2023-09-08T00:31:20;7.68;;;4.05;;
11287;SDS011;5700;50.996;7.044;2023-09-08T00:34:22;7.50;;;4.38;;
11287;SDS011;5700;50.996;7.044;2023-09-08T00:37:23;7.90;;;4.50;;
11287;SDS011;5700;50.996;7.044;2023-09-08T00:40:27;7.10;;;4.10;;
11287;SDS011;5700;50.996;7.044;2023-09-08T00:43:29;7.97;;;4.25;;
11287;SDS011;5700;50.996;7.044;2023-09-08T00:46:31;8.23;;;4.47;;
11287;SDS011;5700;50.996;7.044;2023-09-08T00:49:32;7.63;;;4.18;;
11287;SDS011;5700;50.996;7.044;2023-09-08T00:52:34;7.05;;;4.70;;
11287;SDS011;5700;50.996;7.044;2023-09-08T00:55:37;6.78;;;4.05;;
11287;SDS011;5700;50.996;7.044;2023-09-08T00:58:40;6.85;;;4.20;;
11287;SDS011;5700;50.996;7.044;2023-09-08T01:01:42;6.85;;;4.32;;
11287;SDS011;5700;50.996;7.044;2023-09-08T01:04:43;6.88;;;4.25;;
11287;SDS011;5700;50.996;7.044;2023-09-08T01:07:46;6.63;;;3.97;;
11287;SDS011;5700;50.996;7.044;2023-09-08T01:10:49;9.13;;;4.18;;
11287;SDS011;5700;50.996;7.044;2023-09-08T01:13:51;8.50;;;3.90;;
11287;SDS011;5700;50.996;7.044;2023-09-08T01:16:52;9.40;;;4.90;;
11287;SDS011;5700;50.996;7.044;2023-09-08T01:19:55;8.07;;;4.20;;
11287;SDS011;5700;50.996;7.044;2023-09-08T01:23:01;6.40;;;4.00;;
11287;SDS011;5700;50.996;7.044;2023-09-08T01:26:10;8.85;;;4.38;;
11287;SDS011;5700;50.996;7.044;2023-09-08T01:29:14;7.07;;;4.18;;
11287;SDS011;5700;50.996;7.044;2023-09-08T01:32:16;9.30;;;4.53;;
11287;SDS011;5700;50.996;7.044;2023-09-08T01:35:18;6.53;;;3.95;;
11287;SDS011;5700;50.996;7.044;2023-09-08T01:38:20;7.25;;;4.28;;
11287;SDS011;5700;50.996;7.044;2023-09-08T01:41:23;7.20;;;4.57;;
11287;SDS011;5700;50.996;7.044;2023-09-08T01:44:25;7.90;;;4.32;;
11287;SDS011;5700;50.996;7.044;2023-09-08T01:47:29;6.93;;;4.13;;
11287;SDS011;5700;50.996;7.044;2023-09-08T01:50:30;7.38;;;4.63;;
11287;SDS011;5700;50.996;7.044;2023-09-08T01:53:32;7.68;;;4.15;;
11287;SDS011;5700;50.996;7.044;2023-09-08T01:56:35;7.15;;;3.67;;
11287;SDS011;5700;50.996;7.044;2023-09-08T01:59:36;6.40;;;4.07;;
11287;SDS011;5700;50.996;7.044;2023-09-08T02:02:38;8.55;;;5.15;;
11287;SDS011;5700;50.996;7.044;2023-09-08T02:05:40;7.07;;;4.07;;
11287;SDS011;5700;50.996;7.044;2023-09-08T02:08:41;10.98;;;5.15;;
11287;SDS011;5700;50.996;7.044;2023-09-08T02:11:44;9.32;;;4.28;;
11287;SDS011;5700;50.996;7.044;2023-09-08T02:14:45;7.72;;;4.32;;
11287;SDS011;5700;50.996;7.044;2023-09-08T02:17:50;7.00;;;4.50;;
11287;SDS011;5700;50.996;7.044;2023-09-08T02:20:53;7.65;;;4.30;;
11287;SDS011;5700;50.996;7.044;2023-09-08T02:23:55;6.80;;;4.45;;
11287;SDS011;5700;50.996;7.044;2023-09-08T02:26:59;9.32;;;4.28;;
11287;SDS011;5700;50.996;7.044;2023-09-08T02:30:00;8.57;;;4.28;;
11287;SDS011;5700;50.996;7.044;2023-09-08T02:33:02;6.25;;;3.45;;
11287;SDS011;5700;50.996;7.044;2023-09-08T02:36:05;8.23;;;4.30;;
11287;SDS011;5700;50.996;7.044;2023-09-08T02:39:07;7.60;;;4.45;;
11287;SDS011;5700;50.996;7.044;2023-09-08T02:42:11;7.93;;;4.65;;
11287;SDS011;5700;50.996;7.044;2023-09-08T02:45:13;6.55;;;4.18;;
11287;SDS011;5700;50.996;7.044;2023-09-08T02:48:15;6.50;;;4.00;;
11287;SDS011;5700;50.996;7.044;2023-09-08T02:51:17;8.10;;;4.40;;
11287;SDS011;5700;50.996;7.044;2023-09-08T02:54:19;9.52;;;4.50;;
11287;SDS011;5700;50.996;7.044;2023-09-08T02:57:22;7.15;;;4.10;;
11287;SDS011;5700;50.996;7.044;2023-09-08T03:00:24;6.90;;;4.30;;
11287;SDS011;5700;50.996;7.044;2023-09-08T03:03:26;6.85;;;4.35;;
11287;SDS011;5700;50.996;7.044;2023-09-08T03:06:28;7.00;;;4.25;;
11287;SDS011;5700;50.996;7.044;2023-09-08T03:09:29;6.18;;;4.10;;
11287;SDS011;5700;50.996;7.044;2023-09-08T03:12:33;8.93;;;4.40;;
11287;SDS011;5700;50.996;7.044;2023-09-08T03:15:34;6.55;;;4.07;;
11287;SDS011;5700;50.996;7.044;2023-09-08T03:18:36;7.28;;;4.20;;
11287;SDS011;5700;50.996;7.044;2023-09-08T03:21:38;7.53;;;4.25;;
11287;SDS011;5700;50.996;7.044;2023-09-08T03:24:40;9.25;;;5.13;;
11287;SDS011;5700;50.996;7.044;2023-09-08T03:27:44;7.72;;;4.10;;
11287;SDS011;5700;50.996;7.044;2023-09-08T03:30:45;8.73;;;4.68;;
11287;SDS011;5700;50.996;7.044;2023-09-08T03:33:47;7.97;;;4.32;;
11287;SDS011;5700;50.996;7.044;2023-09-08T03:36:49;8.50;;;4.68;;
11287;SDS011;5700;50.996;7.044;2023-09-08T03:39:51;9.13;;;4.55;;
11287;SDS011;5700;50.996;7.044;2023-09-08T03:42:54;8.90;;;4.60;;
11287;SDS011;5700;50.996;7.044;2023-09-08T03:45:56;7.47;;;4.60;;
11287;SDS011;5700;50.996;7.044;2023-09-08T03:48:58;7.13;;;4.00;;
11287;SDS011;5700;50.996;7.044;2023-09-08T03:52:00;7.85;;;4.60;;
11287;SDS011;5700;50.996;7.044;2023-09-08T03:55:02;7.43;;;3.97;;
11287;SDS011;5700;50.996;7.044;2023-09-08T03:58:07;7.00;;;4.32;;
11287;SDS011;5700;50.996;7.044;2023-09-08T04:01:09;6.65;;;4.00;;
11287;SDS011;5700;50.996;7.044;2023-09-08T04:04:10;8.07;;;4.47;;
11287;SDS011;5700;50.996;7.044;2023-09-08T04:07:12;7.35;;;4.38;;
11287;SDS011;5700;50.996;7.044;2023-09-08T04:10:13;8.10;;;4.43;;
11287;SDS011;5700;50.996;7.044;2023-09-08T04:13:16;6.28;;;4.28;;
11287;SDS011;5700;50.996;7.044;2023-09-08T04:16:18;6.50;;;3.92;;
11287;SDS011;5700;50.996;7.044;2023-09-08T04:19:19;13.57;;;4.72;;
11287;SDS011;5700;50.996;7.044;2023-09-08T04:22:21;6.50;;;4.32;;
11287;SDS011;5700;50.996;7.044;2023-09-08T04:25:22;6.97;;;4.50;;
11287;SDS011;5700;50.996;7.044;2023-09-08T04:28:26;7.13;;;4.22;;
11287;SDS011;5700;50.996;7.044;2023-09-08T04:31:27;7.78;;;4.38;;
11287;SDS011;5700;50.996;7.044;2023-09-08T04:34:29;7.00;;;4.00;;
11287;SDS011;5700;50.996;7.044;2023-09-08T04:37:30;7.07;;;4.03;;
11287;SDS011;5700;50.996;7.044;2023-09-08T04:40:32;7.22;;;3.75;;
11287;SDS011;5700;50.996;7.044;2023-09-08T04:43:35;7.50;;;4.03;;
11287;SDS011;5700;50.996;7.044;2023-09-08T04:46:37;8.73;;;4.40;;
11287;SDS011;5700;50.996;7.044;2023-09-08T04:49:38;7.18;;;4.20;;
11287;SDS011;5700;50.996;7.044;2023-09-08T04:52:40;8.70;;;4.13;;
11287;SDS011;5700;50.996;7.044;2023-09-08T04:55:42;8.30;;;4.72;;
11287;SDS011;5700;50.996;7.044;2023-09-08T04:58:45;6.28;;;4.18;;
11287;SDS011;5700;50.996;7.044;2023-09-08T05:01:47;7.45;;;4.65;;
11287;SDS011;5700;50.996;7.044;2023-09-08T05:04:49;7.28;;;4.30;;
11287;SDS011;5700;50.996;7.044;2023-09-08T05:07:50;9.75;;;4.88;;
11287;SDS011;5700;50.996;7.044;2023-09-08T05:10:56;7.07;;;4.45;;
11287;SDS011;5700;50.996;7.044;2023-09-08T05:13:59;8.02;;;4.50;;
11287;SDS011;5700;50.996;7.044;2023-09-08T05:17:01;6.82;;;3.90;;
11287;SDS011;5700;50.996;7.044;2023-09-08T05:20:02;8.05;;;4.90;;
11287;SDS011;5700;50.996;7.044;2023-09-08T05:23:04;8.98;;;4.85;;
11287;SDS011;5700;50.996;7.044;2023-09-08T05:26:06;9.60;;;4.30;;
11287;SDS011;5700;50.996;7.044;2023-09-08T05:29:09;7.00;;;4.38;;
11287;SDS011;5700;50.996;7.044;2023-09-08T05:32:11;8.88;;;4.13;;
11287;SDS011;5700;50.996;7.044;2023-09-08T05:35:12;7.60;;;4.82;;
11287;SDS011;5700;50.996;7.044;2023-09-08T05:38:14;8.98;;;4.82;;
11287;SDS011;5700;50.996;7.044;2023-09-08T05:41:16;6.05;;;4.18;;
11287;SDS011;5700;50.996;7.044;2023-09-08T05:44:19;8.45;;;4.32;;
11287;SDS011;5700;50.996;7.044;2023-09-08T05:47:21;7.18;;;4.32;;
11287;SDS011;5700;50.996;7.044;2023-09-08T05:50:23;9.10;;;4.38;;
11287;SDS011;5700;50.996;7.044;2023-09-08T05:53:24;9.40;;;4.80;;
11287;SDS011;5700;50.996;7.044;2023-09-08T05:56:29;6.97;;;4.30;;
11287;SDS011;5700;50.996;7.044;2023-09-08T05:59:33;8.65;;;4.28;;
11287;SDS011;5700;50.996;7.044;2023-09-08T06:02:35;8.30;;;4.63;;
11287;SDS011;5700;50.996;7.044;2023-09-08T06:05:37;8.07;;;4.22;;
11287;SDS011;5700;50.996;7.044;2023-09-08T06:08:39;8.88;;;4.70;;
11287;SDS011;5700;50.996;7.044;2023-09-08T06:11:40;9.35;;;4.18;;
11287;SDS011;5700;50.996;7.044;2023-09-08T06:14:44;6.55;;;3.95;;
11287;SDS011;5700;50.996;7.044;2023-09-08T06:17:45;7.97;;;3.85;;
11287;SDS011;5700;50.996;7.044;2023-09-08T06:20:48;8.18;;;4.57;;
11287;SDS011;5700;50.996;7.044;2023-09-08T06:23:50;8.20;;;4.15;;
11287;SDS011;5700;50.996;7.044;2023-09-08T06:26:51;9.18;;;4.65;;
11287;SDS011;5700;50.996;7.044;2023-09-08T06:29:54;11.18;;;4.65;;
11287;SDS011;5700;50.996;7.044;2023-09-08T06:32:57;11.23;;;4.78;;
11287;SDS011;5700;50.996;7.044;2023-09-08T06:35:58;13.02;;;4.70;;
11287;SDS011;5700;50.996;7.044;2023-09-08T06:39:00;8.85;;;4.65;;
11287;SDS011;5700;50.996;7.044;2023-09-08T06:42:02;9.20;;;5.13;;
11287;SDS011;5700;50.996;7.044;2023-09-08T06:45:06;12.27;;;5.22;;
11287;SDS011;5700;50.996;7.044;2023-09-08T06:48:08;12.73;;;4.85;;
11287;SDS011;5700;50.996;7.044;2023-09-08T06:51:10;12.00;;;5.25;;
11287;SDS011;5700;50.996;7.044;2023-09-08T06:54:11;10.95;;;4.70;;
11287;SDS011;5700;50.996;7.044;2023-09-08T06:57:13;11.45;;;4.85;;
11287;SDS011;5700;50.996;7.044;2023-09-08T07:00:17;12.07;;;4.80;;
11287;SDS011;5700;50.996;7.044;2023-09-08T07:03:20;9.02;;;4.80;;
11287;SDS011;5700;50.996;7.044;2023-09-08T07:06:22;10.75;;;5.03;;
11287;SDS011;5700;50.996;7.044;2023-09-08T07:09:24;7.80;;;4.43;;
11287;SDS011;5700;50.996;7.044;2023-09-08T07:12:26;10.93;;;4.53;;
11287;SDS011;5700;50.996;7.044;2023-09-08T07:15:29;7.88;;;4.38;;
11287;SDS011;5700;50.996;7.044;2023-09-08T07:18:31;6.50;;;3.80;;
11287;SDS011;5700;50.996;7.044;2023-09-08T07:21:35;6.95;;;4.40;;
11287;SDS011;5700;50.996;7.044;2023-09-08T07:24:37;7.72;;;4.07;;
11287;SDS011;5700;50.996;7.044;2023-09-08T07:27:39;6.18;;;3.83;;
11287;SDS011;5700;50.996;7.044;2023-09-08T07:30:42;11.48;;;4.65;;
11287;SDS011;5700;50.996;7.044;2023-09-08T07:33:43;7.47;;;4.07;;
11287;SDS011;5700;50.996;7.044;2023-09-08T07:36:45;10.18;;;4.13;;
11287;SDS011;5700;50.996;7.044;2023-09-08T07:39:47;8.13;;;4.20;;
11287;SDS011;5700;50.996;7.044;2023-09-08T07:42:49;8.35;;;3.47;;
11287;SDS011;5700;50.996;7.044;2023-09-08T07:45:52;5.13;;;3.42;;
11287;SDS011;5700;50.996;7.044;2023-09-08T07:48:53;5.43;;;3.28;;
11287;SDS011;5700;50.996;7.044;2023-09-08T07:51:55;6.78;;;3.47;;
11287;SDS011;5700;50.996;7.044;2023-09-08T07:54:57;5.43;;;3.28;;
11287;SDS011;5700;50.996;7.044;2023-09-08T07:57:58;6.72;;;3.28;;
11287;SDS011;5700;50.996;7.044;2023-09-08T08:01:03;8.00;;;3.38;;
11287;SDS011;5700;50.996;7.044;2023-09-08T08:04:04;6.07;;;2.97;;
11287;SDS011;5700;50.996;7.044;2023-09-08T08:07:06;5.22;;;3.13;;
11287;SDS011;5700;50.996;7.044;2023-09-08T08:10:08;5.60;;;3.45;;
11287;SDS011;5700;50.996;7.044;2023-09-08T08:13:10;5.30;;;2.90;;
11287;SDS011;5700;50.996;7.044;2023-09-08T08:16:13;5.03;;;3.13;;
11287;SDS011;5700;50.996;7.044;2023-09-08T08:19:14;4.63;;;2.47;;
11287;SDS011;5700;50.996;7.044;2023-09-08T08:22:16;4.82;;;2.83;;
11287;SDS011;5700;50.996;7.044;2023-09-08T08:25:17;6.97;;;3.20;;
11287;SDS011;5700;50.996;7.044;2023-09-08T08:28:19;5.43;;;3.40;;
11287;SDS011;5700;50.996;7.044;2023-09-08T08:31:22;5.60;;;2.95;;
11287;SDS011;5700;50.996;7.044;2023-09-08T08:34:24;5.50;;;2.78;;
11287;SDS011;5700;50.996;7.044;2023-09-08T08:37:26;9.95;;;3.40;;
11287;SDS011;5700;50.996;7.044;2023-09-08T08:40:27;5.85;;;3.42;;
11287;SDS011;5700;50.996;7.044;2023-09-08T08:43:29;5.68;;;3.15;;
11287;SDS011;5700;50.996;7.044;2023-09-08T08:46:33;4.13;;;2.80;;
11287;SDS011;5700;50.996;7.044;2023-09-08T08:49:34;9.82;;;3.42;;
11287;SDS011;5700;50.996;7.044;2023-09-08T08:52:37;6.68;;;3.00;;
11287;SDS011;5700;50.996;7.044;2023-09-08T08:55:39;6.05;;;3.30;;
11287;SDS011;5700;50.996;7.044;2023-09-08T08:58:41;7.95;;;3.13;;
11287;SDS011;5700;50.996;7.044;2023-09-08T09:01:45;4.47;;;3.00;;
11287;SDS011;5700;50.996;7.044;2023-09-08T09:04:46;4.70;;;2.70;;
11287;SDS011;5700;50.996;7.044;2023-09-08T09:07:48;5.18;;;2.85;;
11287;SDS011;5700;50.996;7.044;2023-09-08T09:10:51;5.10;;;3.05;;
11287;SDS011;5700;50.996;7.044;2023-09-08T09:13:53;4.20;;;2.97;;
11287;SDS011;5700;50.996;7.044;2023-09-08T09:16:57;5.63;;;2.63;;
11287;SDS011;5700;50.996;7.044;2023-09-08T09:23:19;5.03;;;2.83;;
11287;SDS011;5700;50.996;7.044;2023-09-08T09:26:28;5.20;;;3.03;;
11287;SDS011;5700;50.996;7.044;2023-09-08T09:29:30;6.85;;;3.03;;
11287;SDS011;5700;50.996;7.044;2023-09-08T09:32:33;5.82;;;3.30;;
11287;SDS011;5700;50.996;7.044;2023-09-08T09:35:39;5.60;;;3.10;;
11287;SDS011;5700;50.996;7.044;2023-09-08T09:38:41;4.57;;;2.80;;
11287;SDS011;5700;50.996;7.044;2023-09-08T09:41:42;4.32;;;2.67;;
11287;SDS011;5700;50.996;7.044;2023-09-08T09:44:44;6.40;;;2.95;;
11287;SDS011;5700;50.996;7.044;2023-09-08T09:47:46;6.47;;;2.90;;
11287;SDS011;5700;50.996;7.044;2023-09-08T09:50:48;6.10;;;3.00;;
11287;SDS011;5700;50.996;7.044;2023-09-08T09:53:50;5.00;;;2.78;;
11287;SDS011;5700;50.996;7.044;2023-09-08T09:56:51;5.68;;;2.88;;
11287;SDS011;5700;50.996;7.044;2023-09-08T09:59:53;5.35;;;2.60;;
11287;SDS011;5700;50.996;7.044;2023-09-08T10:02:58;6.55;;;2.83;;
11287;SDS011;5700;50.996;7.044;2023-09-08T10:06:00;5.38;;;3.00;;
11287;SDS011;5700;50.996;7.044;2023-09-08T10:09:04;5.20;;;3.10;;
11287;SDS011;5700;50.996;7.044;2023-09-08T10:12:12;5.35;;;2.80;;
11287;SDS011;5700;50.996;7.044;2023-09-08T10:15:20;5.40;;;3.08;;
11287;SDS011;5700;50.996;7.044;2023-09-08T10:18:24;4.80;;;3.28;;
11287;SDS011;5700;50.996;7.044;2023-09-08T10:21:26;5.35;;;3.00;;
11287;SDS011;5700;50.996;7.044;2023-09-08T10:24:32;5.50;;;3.10;;
11287;SDS011;5700;50.996;7.044;2023-09-08T10:27:35;5.43;;;2.92;;
11287;SDS011;5700;50.996;7.044;2023-09-08T10:30:38;4.78;;;2.67;;
11287;SDS011;5700;50.996;7.044;2023-09-08T10:33:41;6.65;;;3.20;;
11287;SDS011;5700;50.996;7.044;2023-09-08T10:36:43;6.82;;;3.20;;
11287;SDS011;5700;50.996;7.044;2023-09-08T10:39:45;5.45;;;2.92;;
11287;SDS011;5700;50.996;7.044;2023-09-08T10:42:47;5.55;;;3.15;;
11287;SDS011;5700;50.996;7.044;2023-09-08T10:45:49;5.63;;;2.95;;
11287;SDS011;5700;50.996;7.044;2023-09-08T10:48:53;5.28;;;3.05;;
11287;SDS011;5700;50.996;7.044;2023-09-08T10:52:03;5.10;;;2.90;;
11287;SDS011;5700;50.996;7.044;2023-09-08T10:55:08;6.20;;;3.33;;
11287;SDS011;5700;50.996;7.044;2023-09-08T10:58:10;5.75;;;3.25;;
11287;SDS011;5700;50.996;7.044;2023-09-08T11:01:12;6.65;;;3.15;;
11287;SDS011;5700;50.996;7.044;2023-09-08T11:04:16;5.68;;;3.28;;
11287;SDS011;5700;50.996;7.044;2023-09-08T11:07:19;4.43;;;2.70;;
11287;SDS011;5700;50.996;7.044;2023-09-08T11:10:20;5.05;;;3.20;;
11287;SDS011;5700;50.996;7.044;2023-09-08T11:13:22;5.22;;;3.35;;
11287;SDS011;5700;50.996;7.044;2023-09-08T11:16:24;7.10;;;3.00;;
11287;SDS011;5700;50.996;7.044;2023-09-08T11:19:44;4.40;;;2.72;;
11287;SDS011;5700;50.996;7.044;2023-09-08T11:22:46;8.02;;;2.67;;
11287;SDS011;5700;50.996;7.044;2023-09-08T11:25:50;3.70;;;2.63;;
11287;SDS011;5700;50.996;7.044;2023-09-08T11:28:52;5.30;;;2.88;;
11287;SDS011;5700;50.996;7.044;2023-09-08T11:31:53;8.07;;;3.28;;
11287;SDS011;5700;50.996;7.044;2023-09-08T11:34:56;6.95;;;2.80;;
11287;SDS011;5700;50.996;7.044;2023-09-08T11:38:03;4.45;;;2.97;;
11287;SDS011;5700;50.996;7.044;2023-09-08T11:41:05;5.70;;;2.92;;
11287;SDS011;5700;50.996;7.044;2023-09-08T11:44:07;5.85;;;3.00;;
11287;SDS011;5700;50.996;7.044;2023-09-08T11:47:09;4.55;;;2.95;;
11287;SDS011;5700;50.996;7.044;2023-09-08T11:50:13;4.88;;;3.10;;
11287;SDS011;5700;50.996;7.044;2023-09-08T11:53:18;5.63;;;3.30;;
11287;SDS011;5700;50.996;7.044;2023-09-08T11:56:20;4.97;;;3.17;;
11287;SDS011;5700;50.996;7.044;2023-09-08T11:59:22;6.85;;;3.30;;
11287;SDS011;5700;50.996;7.044;2023-09-08T12:02:24;4.28;;;2.95;;
11287;SDS011;5700;50.996;7.044;2023-09-08T12:05:27;4.55;;;2.88;;
11287;SDS011;5700;50.996;7.044;2023-09-08T12:08:30;8.00;;;2.95;;
11287;SDS011;5700;50.996;7.044;2023-09-08T12:11:32;5.40;;;3.22;;
11287;SDS011;5700;50.996;7.044;2023-09-08T12:14:39;5.57;;;2.85;;
11287;SDS011;5700;50.996;7.044;2023-09-08T12:17:49;3.78;;;2.60;;
11287;SDS011;5700;50.996;7.044;2023-09-08T12:21:02;7.07;;;2.88;;
11287;SDS011;5700;50.996;7.044;2023-09-08T12:24:04;8.30;;;3.20;;
11287;SDS011;5700;50.996;7.044;2023-09-08T12:27:07;4.55;;;2.95;;
11287;SDS011;5700;50.996;7.044;2023-09-08T12:30:09;5.57;;;2.53;;
11287;SDS011;5700;50.996;7.044;2023-09-08T12:33:19;4.82;;;2.83;;
11287;SDS011;5700;50.996;7.044;2023-09-08T12:36:23;5.32;;;2.90;;
11287;SDS011;5700;50.996;7.044;2023-09-08T12:39:24;5.22;;;3.08;;
11287;SDS011;5700;50.996;7.044;2023-09-08T12:42:26;4.85;;;2.85;;
11287;SDS011;5700;50.996;7.044;2023-09-08T12:45:29;6.78;;;2.70;;
11287;SDS011;5700;50.996;7.044;2023-09-08T12:48:31;4.57;;;3.10;;
11287;SDS011;5700;50.996;7.044;2023-09-08T12:51:34;6.10;;;3.22;;
11287;SDS011;5700;50.996;7.044;2023-09-08T12:54:35;5.57;;;2.88;;
11287;SDS011;5700;50.996;7.044;2023-09-08T12:57:37;7.10;;;3.22;;
11287;SDS011;5700;50.996;7.044;2023-09-08T13:00:39;4.43;;;2.50;;
11287;SDS011;5700;50.996;7.044;2023-09-08T13:03:40;5.80;;;3.08;;
11287;SDS011;5700;50.996;7.044;2023-09-08T13:06:43;6.38;;;3.25;;
11287;SDS011;5700;50.996;7.044;2023-09-08T13:09:45;5.13;;;2.92;;
11287;SDS011;5700;50.996;7.044;2023-09-08T13:12:47;7.10;;;3.22;;
11287;SDS011;5700;50.996;7.044;2023-09-08T13:15:48;5.35;;;3.20;;
11287;SDS011;5700;50.996;7.044;2023-09-08T13:18:50;5.95;;;3.15;;
11287;SDS011;5700;50.996;7.044;2023-09-08T13:21:53;6.38;;;3.10;;
11287;SDS011;5700;50.996;7.044;2023-09-08T13:24:55;3.65;;;2.70;;
11287;SDS011;5700;50.996;7.044;2023-09-08T13:27:56;5.50;;;3.15;;
11287;SDS011;5700;50.996;7.044;2023-09-08T13:30:58;4.28;;;2.55;;
11287;SDS011;5700;50.996;7.044;2023-09-08T13:34:00;4.72;;;2.72;;
11287;SDS011;5700;50.996;7.044;2023-09-08T13:37:03;5.43;;;3.10;;
11287;SDS011;5700;50.996;7.044;2023-09-08T13:40:05;5.43;;;3.15;;
11287;SDS011;5700;50.996;7.044;2023-09-08T13:43:07;5.93;;;2.85;;
11287;SDS011;5700;50.996;7.044;2023-09-08T13:46:11;4.75;;;3.05;;
11287;SDS011;5700;50.996;7.044;2023-09-08T13:49:13;4.75;;;2.95;;
11287;SDS011;5700;50.996;7.044;2023-09-08T13:52:17;5.03;;;2.95;;
11287;SDS011;5700;50.996;7.044;2023-09-08T13:55:18;4.35;;;2.72;;
11287;SDS011;5700;50.996;7.044;2023-09-08T13:58:23;4.07;;;2.67;;
11287;SDS011;5700;50.996;7.044;2023-09-08T14:01:25;4.05;;;2.80;;
11287;SDS011;5700;50.996;7.044;2023-09-08T14:04:29;4.65;;;2.60;;
11287;SDS011;5700;50.996;7.044;2023-09-08T14:07:32;4.38;;;2.85;;
11287;SDS011;5700;50.996;7.044;2023-09-08T14:10:34;3.80;;;2.47;;
11287;SDS011;5700;50.996;7.044;2023-09-08T14:13:35;4.10;;;2.83;;
11287;SDS011;5700;50.996;7.044;2023-09-08T14:16:37;4.57;;;2.80;;
11287;SDS011;5700;50.996;7.044;2023-09-08T14:19:39;3.88;;;2.55;;
11287;SDS011;5700;50.996;7.044;2023-09-08T14:22:41;5.45;;;2.65;;
11287;SDS011;5700;50.996;7.044;2023-09-08T14:25:43;6.60;;;2.72;;
11287;SDS011;5700;50.996;7.044;2023-09-08T14:28:44;5.57;;;3.13;;
11287;SDS011;5700;50.996;7.044;2023-09-08T14:31:46;5.00;;;2.95;;
11287;SDS011;5700;50.996;7.044;2023-09-08T14:34:48;5.28;;;3.08;;
11287;SDS011;5700;50.996;7.044;2023-09-08T14:37:51;6.50;;;3.17;;
11287;SDS011;5700;50.996;7.044;2023-09-08T14:40:53;5.10;;;2.60;;
11287;SDS011;5700;50.996;7.044;2023-09-08T14:43:55;5.45;;;2.90;;
11287;SDS011;5700;50.996;7.044;2023-09-08T14:46:57;7.15;;;2.90;;
11287;SDS011;5700;50.996;7.044;2023-09-08T14:49:58;5.13;;;2.65;;
11287;SDS011;5700;50.996;7.044;2023-09-08T14:53:01;9.02;;;3.05;;
11287;SDS011;5700;50.996;7.044;2023-09-08T14:56:03;5.68;;;2.92;;
11287;SDS011;5700;50.996;7.044;2023-09-08T14:59:05;5.97;;;3.17;;
11287;SDS011;5700;50.996;7.044;2023-09-08T15:02:07;5.32;;;2.95;;
11287;SDS011;5700;50.996;7.044;2023-09-08T15:05:09;5.90;;;2.60;;
11287;SDS011;5700;50.996;7.044;2023-09-08T15:08:12;5.22;;;3.20;;
11287;SDS011;5700;50.996;7.044;2023-09-08T15:11:14;6.00;;;2.92;;
11287;SDS011;5700;50.996;7.044;2023-09-08T15:14:15;5.50;;;3.30;;
11287;SDS011;5700;50.996;7.044;2023-09-08T15:17:17;5.78;;;3.47;;
11287;SDS011;5700;50.996;7.044;2023-09-08T15:20:19;7.78;;;3.10;;
11287;SDS011;5700;50.996;7.044;2023-09-08T15:23:22;5.35;;;3.33;;
11287;SDS011;5700;50.996;7.044;2023-09-08T15:26:23;5.63;;;2.83;;
11287;SDS011;5700;50.996;7.044;2023-09-08T15:29:24;6.00;;;3.08;;
11287;SDS011;5700;50.996;7.044;2023-09-08T15:32:26;5.00;;;2.85;;
11287;SDS011;5700;50.996;7.044;2023-09-08T15:35:27;5.32;;;3.33;;
11287;SDS011;5700;50.996;7.044;2023-09-08T15:38:30;3.97;;;3.00;;
11287;SDS011;5700;50.996;7.044;2023-09-08T15:41:32;5.47;;;3.40;;
11287;SDS011;5700;50.996;7.044;2023-09-08T15:44:33;4.93;;;3.00;;
11287;SDS011;5700;50.996;7.044;2023-09-08T15:47:35;5.55;;;3.25;;
11287;SDS011;5700;50.996;7.044;2023-09-08T15:50:36;6.55;;;3.13;;
11287;SDS011;5700;50.996;7.044;2023-09-08T15:53:39;4.35;;;2.80;;
11287;SDS011;5700;50.996;7.044;2023-09-08T15:56:40;6.68;;;3.05;;
11287;SDS011;5700;50.996;7.044;2023-09-08T15:59:42;4.22;;;2.75;;
11287;SDS011;5700;50.996;7.044;2023-09-08T16:02:44;4.45;;;2.90;;
11287;SDS011;5700;50.996;7.044;2023-09-08T16:05:45;6.18;;;3.42;;
11287;SDS011;5700;50.996;7.044;2023-09-08T16:08:48;4.72;;;3.30;;
11287;SDS011;5700;50.996;7.044;2023-09-08T16:11:50;4.95;;;2.95;;
11287;SDS011;5700;50.996;7.044;2023-09-08T16:14:51;4.97;;;3.30;;
11287;SDS011;5700;50.996;7.044;2023-09-08T16:17:53;5.32;;;3.05;;
11287;SDS011;5700;50.996;7.044;2023-09-08T16:20:54;6.20;;;3.25;;
11287;SDS011;5700;50.996;7.044;2023-09-08T16:23:58;5.20;;;2.90;;
11287;SDS011;5700;50.996;7.044;2023-09-08T16:26:59;7.60;;;3.28;;
11287;SDS011;5700;50.996;7.044;2023-09-08T16:30:03;6.05;;;3.40;;
11287;SDS011;5700;50.996;7.044;2023-09-08T16:33:05;6.43;;;3.22;;
11287;SDS011;5700;50.996;7.044;2023-09-08T16:36:07;4.72;;;3.08;;
11287;SDS011;5700;50.996;7.044;2023-09-08T16:39:10;3.83;;;2.47;;
11287;SDS011;5700;50.996;7.044;2023-09-08T16:42:12;5.93;;;3.15;;
11287;SDS011;5700;50.996;7.044;2023-09-08T16:45:13;5.63;;;2.80;;
11287;SDS011;5700;50.996;7.044;2023-09-08T16:48:15;9.65;;;3.45;;
11287;SDS011;5700;50.996;7.044;2023-09-08T16:51:16;6.53;;;3.55;;
11287;SDS011;5700;50.996;7.044;2023-09-08T16:54:20;7.82;;;3.25;;
11287;SDS011;5700;50.996;7.044;2023-09-08T16:57:23;6.18;;;3.25;;
11287;SDS011;5700;50.996;7.044;2023-09-08T17:00:24;6.90;;;3.28;;
11287;SDS011;5700;50.996;7.044;2023-09-08T17:03:26;7.68;;;3.60;;
11287;SDS011;5700;50.996;7.044;2023-09-08T17:06:27;5.93;;;3.30;;
11287;SDS011;5700;50.996;7.044;2023-09-08T17:09:30;6.47;;;3.35;;
11287;SDS011;5700;50.996;7.044;2023-09-08T17:12:31;5.45;;;3.30;;
11287;SDS011;5700;50.996;7.044;2023-09-08T17:15:33;6.15;;;3.70;;
11287;SDS011;5700;50.996;7.044;2023-09-08T17:18:35;6.00;;;3.67;;
11287;SDS011;5700;50.996;7.044;2023-09-08T17:21:36;7.32;;;3.80;;
11287;SDS011;5700;50.996;7.044;2023-09-08T17:24:39;6.70;;;4.05;;
11287;SDS011;5700;50.996;7.044;2023-09-08T17:27:42;8.30;;;4.15;;
11287;SDS011;5700;50.996;7.044;2023-09-08T17:30:45;8.82;;;4.13;;
11287;SDS011;5700;50.996;7.044;2023-09-08T17:33:47;6.70;;;3.50;;
11287;SDS011;5700;50.996;7.044;2023-09-08T17:36:51;5.85;;;3.55;;
11287;SDS011;5700;50.996;7.044;2023-09-08T17:39:55;9.90;;;3.92;;
11287;SDS011;5700;50.996;7.044;2023-09-08T17:42:57;6.88;;;3.67;;
11287;SDS011;5700;50.996;7.044;2023-09-08T17:45:58;13.65;;;3.92;;
11287;SDS011;5700;50.996;7.044;2023-09-08T17:49:00;5.80;;;3.63;;
11287;SDS011;5700;50.996;7.044;2023-09-08T17:52:02;6.38;;;3.72;;
11287;SDS011;5700;50.996;7.044;2023-09-08T17:55:06;9.27;;;4.18;;
11287;SDS011;5700;50.996;7.044;2023-09-08T17:58:08;8.40;;;4.32;;
11287;SDS011;5700;50.996;7.044;2023-09-08T18:01:09;6.45;;;3.92;;
11287;SDS011;5700;50.996;7.044;2023-09-08T18:04:11;7.32;;;4.32;;
11287;SDS011;5700;50.996;7.044;2023-09-08T18:07:12;10.88;;;4.50;;
11287;SDS011;5700;50.996;7.044;2023-09-08T18:10:16;6.55;;;4.03;;
11287;SDS011;5700;50.996;7.044;2023-09-08T18:13:18;10.93;;;4.53;;
11287;SDS011;5700;50.996;7.044;2023-09-08T18:16:19;7.30;;;4.03;;
11287;SDS011;5700;50.996;7.044;2023-09-08T18:19:21;6.60;;;4.10;;
11287;SDS011;5700;50.996;7.044;2023-09-08T18:22:22;8.55;;;4.60;;
11287;SDS011;5700;50.996;7.044;2023-09-08T18:25:27;8.07;;;4.43;;
11287;SDS011;5700;50.996;7.044;2023-09-08T18:28:28;9.15;;;4.53;;
11287;SDS011;5700;50.996;7.044;2023-09-08T18:31:30;8.88;;;4.70;;
11287;SDS011;5700;50.996;7.044;2023-09-08T18:34:32;9.35;;;4.85;;
11287;SDS011;5700;50.996;7.044;2023-09-08T18:37:33;7.80;;;4.47;;